sensor_id;sensor_type;location;lat;lon;timestamp;P1;durP1;ratioP1;P2;durP2;ratioP2
16731;SDS011;8484;50.904;9.192;2023-02-03T00:00:04;13.43;;;12.03;;
16731;SDS011;8484;50.904;9.192;2023-02-03T00:02:33;17.23;;;14.83;;
16731;SDS011;8484;50.904;9.192;2023-02-03T00:05:00;16.23;;;14.17;;
16731;SDS011;8484;50.904;9.192;2023-02-03T00:07:27;14.63;;;12.73;;
16731;SDS011;8484;50.904;9.192;2023-02-03T00:09:54;13.80;;;12.30;;
16731;SDS011;8484;50.904;9.192;2023-02-03T00:12:22;12.77;;;11.47;;
16731;SDS011;8484;50.904;9.192;2023-02-03T00:14:48;11.90;;;10.80;;
16731;SDS011;8484;50.904;9.192;2023-02-03T00:17:15;11.90;;;10.80;;
16731;SDS011;8484;50.904;9.192;2023-02-03T00:19:43;12.80;;;11.50;;
16731;SDS011;8484;50.904;9.192;2023-02-03T00:22:10;12.30;;;10.70;;
16731;SDS011;8484;50.904;9.192;2023-02-03T00:24:37;11.83;;;10.83;;
16731;SDS011;8484;50.904;9.192;2023-02-03T00:27:04;12.20;;;10.83;;
16731;SDS011;8484;50.904;9.192;2023-02-03T00:29:31;13.17;;;11.87;;
16731;SDS011;8484;50.904;9.192;2023-02-03T00:31:58;13.70;;;12.30;;
16731;SDS011;8484;50.904;9.192;2023-02-03T00:34:26;12.53;;;11.33;;
16731;SDS011;8484;50.904;9.192;2023-02-03T00:36:55;13.07;;;11.63;;
16731;SDS011;8484;50.904;9.192;2023-02-03T00:39:22;13.23;;;11.90;;
16731;SDS011;8484;50.904;9.192;2023-02-03T00:41:49;13.73;;;12.13;;
16731;SDS011;8484;50.904;9.192;2023-02-03T00:44:17;13.30;;;11.97;;
16731;SDS011;8484;50.904;9.192;2023-02-03T00:46:44;16.30;;;11.93;;
16731;SDS011;8484;50.904;9.192;2023-02-03T00:49:11;14.20;;;12.83;;
16731;SDS011;8484;50.904;9.192;2023-02-03T00:51:37;12.77;;;11.57;;
16731;SDS011;8484;50.904;9.192;2023-02-03T00:54:06;14.93;;;12.23;;
16731;SDS011;8484;50.904;9.192;2023-02-03T00:56:33;13.27;;;11.97;;
16731;SDS011;8484;50.904;9.192;2023-02-03T00:59:00;12.10;;;10.83;;
16731;SDS011;8484;50.904;9.192;2023-02-03T01:01:27;13.00;;;11.60;;
16731;SDS011;8484;50.904;9.192;2023-02-03T01:03:54;13.53;;;12.10;;
16731;SDS011;8484;50.904;9.192;2023-02-03T01:06:22;13.77;;;12.37;;
16731;SDS011;8484;50.904;9.192;2023-02-03T01:08:49;12.27;;;11.17;;
16731;SDS011;8484;50.904;9.192;2023-02-03T01:11:19;13.30;;;11.47;;
16731;SDS011;8484;50.904;9.192;2023-02-03T01:13:47;12.03;;;10.83;;
16731;SDS011;8484;50.904;9.192;2023-02-03T01:16:15;10.93;;;9.93;;
16731;SDS011;8484;50.904;9.192;2023-02-03T01:18:44;11.67;;;10.40;;
16731;SDS011;8484;50.904;9.192;2023-02-03T01:21:12;12.33;;;10.77;;
16731;SDS011;8484;50.904;9.192;2023-02-03T01:23:40;12.17;;;11.00;;
16731;SDS011;8484;50.904;9.192;2023-02-03T01:26:08;13.20;;;10.70;;
16731;SDS011;8484;50.904;9.192;2023-02-03T01:28:39;11.90;;;10.63;;
16731;SDS011;8484;50.904;9.192;2023-02-03T01:31:10;11.13;;;10.13;;
16731;SDS011;8484;50.904;9.192;2023-02-03T01:33:39;11.23;;;9.83;;
16731;SDS011;8484;50.904;9.192;2023-02-03T01:36:06;11.60;;;10.37;;
16731;SDS011;8484;50.904;9.192;2023-02-03T01:38:34;11.00;;;9.90;;
16731;SDS011;8484;50.904;9.192;2023-02-03T01:41:02;11.47;;;9.87;;
16731;SDS011;8484;50.904;9.192;2023-02-03T01:43:31;10.73;;;9.77;;
16731;SDS011;8484;50.904;9.192;2023-02-03T01:46:02;10.97;;;9.87;;
16731;SDS011;8484;50.904;9.192;2023-02-03T01:48:32;11.67;;;9.83;;
16731;SDS011;8484;50.904;9.192;2023-02-03T01:51:00;11.97;;;10.87;;
16731;SDS011;8484;50.904;9.192;2023-02-03T01:53:30;12.27;;;10.30;;
16731;SDS011;8484;50.904;9.192;2023-02-03T01:55:58;11.90;;;10.60;;
16731;SDS011;8484;50.904;9.192;2023-02-03T01:58:27;11.47;;;10.20;;
16731;SDS011;8484;50.904;9.192;2023-02-03T02:00:56;10.60;;;9.63;;
16731;SDS011;8484;50.904;9.192;2023-02-03T02:03:26;10.73;;;9.83;;
16731;SDS011;8484;50.904;9.192;2023-02-03T02:05:58;11.37;;;10.27;;
16731;SDS011;8484;50.904;9.192;2023-02-03T02:08:29;11.00;;;9.90;;
16731;SDS011;8484;50.904;9.192;2023-02-03T02:10:56;12.10;;;10.80;;
16731;SDS011;8484;50.904;9.192;2023-02-03T02:13:24;11.87;;;10.47;;
16731;SDS011;8484;50.904;9.192;2023-02-03T02:15:53;11.33;;;10.23;;
16731;SDS011;8484;50.904;9.192;2023-02-03T02:18:37;12.23;;;11.10;;
16731;SDS011;8484;50.904;9.192;2023-02-03T02:21:22;12.00;;;10.60;;
16731;SDS011;8484;50.904;9.192;2023-02-03T02:24:09;11.17;;;10.00;;
16731;SDS011;8484;50.904;9.192;2023-02-03T02:32:58;9.77;;;8.73;;
16731;SDS011;8484;50.904;9.192;2023-02-03T02:35:33;9.47;;;8.57;;
16731;SDS011;8484;50.904;9.192;2023-02-03T02:38:12;9.13;;;8.23;;
16731;SDS011;8484;50.904;9.192;2023-02-03T02:40:45;9.80;;;8.80;;
16731;SDS011;8484;50.904;9.192;2023-02-03T02:43:18;10.10;;;9.00;;
16731;SDS011;8484;50.904;9.192;2023-02-03T02:45:48;9.70;;;8.50;;
16731;SDS011;8484;50.904;9.192;2023-02-03T02:48:21;10.37;;;9.27;;
16731;SDS011;8484;50.904;9.192;2023-02-03T02:50:52;10.13;;;9.17;;
16731;SDS011;8484;50.904;9.192;2023-02-03T02:53:23;9.33;;;8.33;;
16731;SDS011;8484;50.904;9.192;2023-02-03T02:55:54;9.27;;;8.30;;
16731;SDS011;8484;50.904;9.192;2023-02-03T02:58:22;9.30;;;8.40;;
16731;SDS011;8484;50.904;9.192;2023-02-03T03:00:52;10.60;;;9.60;;
16731;SDS011;8484;50.904;9.192;2023-02-03T03:03:23;8.97;;;8.07;;
16731;SDS011;8484;50.904;9.192;2023-02-03T03:05:51;9.03;;;8.20;;
16731;SDS011;8484;50.904;9.192;2023-02-03T03:08:20;9.73;;;8.73;;
16731;SDS011;8484;50.904;9.192;2023-02-03T03:10:53;9.50;;;8.60;;
16731;SDS011;8484;50.904;9.192;2023-02-03T03:13:22;10.30;;;9.10;;
16731;SDS011;8484;50.904;9.192;2023-02-03T03:15:52;11.30;;;8.77;;
16731;SDS011;8484;50.904;9.192;2023-02-03T03:18:23;9.97;;;8.97;;
16731;SDS011;8484;50.904;9.192;2023-02-03T03:20:54;9.37;;;8.37;;
16731;SDS011;8484;50.904;9.192;2023-02-03T03:23:31;10.80;;;9.27;;
16731;SDS011;8484;50.904;9.192;2023-02-03T03:26:03;10.00;;;9.00;;
16731;SDS011;8484;50.904;9.192;2023-02-03T03:28:36;11.20;;;8.90;;
16731;SDS011;8484;50.904;9.192;2023-02-03T03:31:09;9.07;;;8.17;;
16731;SDS011;8484;50.904;9.192;2023-02-03T03:33:37;9.43;;;8.53;;
16731;SDS011;8484;50.904;9.192;2023-02-03T03:36:06;9.63;;;8.47;;
16731;SDS011;8484;50.904;9.192;2023-02-03T03:38:43;9.33;;;8.43;;
16731;SDS011;8484;50.904;9.192;2023-02-03T03:41:17;9.50;;;8.30;;
16731;SDS011;8484;50.904;9.192;2023-02-03T03:43:49;8.90;;;8.10;;
16731;SDS011;8484;50.904;9.192;2023-02-03T03:46:22;9.27;;;8.30;;
16731;SDS011;8484;50.904;9.192;2023-02-03T03:48:54;8.57;;;7.73;;
16731;SDS011;8484;50.904;9.192;2023-02-03T03:51:26;8.93;;;7.43;;
16731;SDS011;8484;50.904;9.192;2023-02-03T03:53:56;7.67;;;6.97;;
16731;SDS011;8484;50.904;9.192;2023-02-03T03:56:28;8.17;;;7.40;;
16731;SDS011;8484;50.904;9.192;2023-02-03T03:58:59;7.47;;;6.87;;
16731;SDS011;8484;50.904;9.192;2023-02-03T04:01:29;9.97;;;7.27;;
16731;SDS011;8484;50.904;9.192;2023-02-03T04:03:59;7.73;;;6.93;;
16731;SDS011;8484;50.904;9.192;2023-02-03T04:06:28;7.50;;;6.80;;
16731;SDS011;8484;50.904;9.192;2023-02-03T04:08:54;7.87;;;7.17;;
16731;SDS011;8484;50.904;9.192;2023-02-03T04:11:21;8.53;;;7.60;;
16731;SDS011;8484;50.904;9.192;2023-02-03T04:14:05;8.47;;;7.33;;
16731;SDS011;8484;50.904;9.192;2023-02-03T04:16:32;7.93;;;7.13;;
16731;SDS011;8484;50.904;9.192;2023-02-03T04:19:00;7.90;;;7.10;;
16731;SDS011;8484;50.904;9.192;2023-02-03T04:21:27;9.80;;;7.37;;
16731;SDS011;8484;50.904;9.192;2023-02-03T04:23:54;7.90;;;7.20;;
16731;SDS011;8484;50.904;9.192;2023-02-03T04:26:22;8.10;;;7.30;;
16731;SDS011;8484;50.904;9.192;2023-02-03T04:28:49;8.03;;;7.23;;
16731;SDS011;8484;50.904;9.192;2023-02-03T04:31:16;7.83;;;6.77;;
16731;SDS011;8484;50.904;9.192;2023-02-03T04:33:42;7.30;;;6.70;;
16731;SDS011;8484;50.904;9.192;2023-02-03T04:36:11;9.63;;;7.30;;
16731;SDS011;8484;50.904;9.192;2023-02-03T04:38:37;7.77;;;7.07;;
16731;SDS011;8484;50.904;9.192;2023-02-03T04:41:04;10.27;;;7.13;;
16731;SDS011;8484;50.904;9.192;2023-02-03T04:43:31;13.37;;;7.67;;
16731;SDS011;8484;50.904;9.192;2023-02-03T04:45:58;9.77;;;7.37;;
16731;SDS011;8484;50.904;9.192;2023-02-03T04:48:25;8.40;;;7.00;;
16731;SDS011;8484;50.904;9.192;2023-02-03T04:50:52;7.83;;;7.03;;
16731;SDS011;8484;50.904;9.192;2023-02-03T04:53:20;8.87;;;7.73;;
16731;SDS011;8484;50.904;9.192;2023-02-03T04:55:48;9.40;;;7.37;;
16731;SDS011;8484;50.904;9.192;2023-02-03T04:58:15;8.03;;;6.63;;
16731;SDS011;8484;50.904;9.192;2023-02-03T05:00:42;8.13;;;6.77;;
16731;SDS011;8484;50.904;9.192;2023-02-03T05:03:08;7.90;;;6.47;;
16731;SDS011;8484;50.904;9.192;2023-02-03T05:05:35;6.97;;;5.90;;
16731;SDS011;8484;50.904;9.192;2023-02-03T05:08:02;10.33;;;6.37;;
16731;SDS011;8484;50.904;9.192;2023-02-03T05:10:31;6.73;;;6.13;;
16731;SDS011;8484;50.904;9.192;2023-02-03T05:13:01;6.70;;;6.10;;
16731;SDS011;8484;50.904;9.192;2023-02-03T05:15:28;7.00;;;6.30;;
16731;SDS011;8484;50.904;9.192;2023-02-03T05:17:55;7.00;;;6.30;;
16731;SDS011;8484;50.904;9.192;2023-02-03T05:20:21;7.10;;;6.20;;
16731;SDS011;8484;50.904;9.192;2023-02-03T05:22:48;7.27;;;6.50;;
16731;SDS011;8484;50.904;9.192;2023-02-03T05:25:15;7.27;;;5.90;;
16731;SDS011;8484;50.904;9.192;2023-02-03T05:27:43;9.00;;;6.23;;
16731;SDS011;8484;50.904;9.192;2023-02-03T05:30:10;6.83;;;5.93;;
16731;SDS011;8484;50.904;9.192;2023-02-03T05:32:38;7.93;;;5.90;;
16731;SDS011;8484;50.904;9.192;2023-02-03T05:35:05;6.90;;;6.17;;
16731;SDS011;8484;50.904;9.192;2023-02-03T05:37:32;6.27;;;5.70;;
16731;SDS011;8484;50.904;9.192;2023-02-03T05:39:59;6.63;;;5.73;;
16731;SDS011;8484;50.904;9.192;2023-02-03T05:42:46;5.87;;;5.33;;
16731;SDS011;8484;50.904;9.192;2023-02-03T05:45:13;5.60;;;5.20;;
16731;SDS011;8484;50.904;9.192;2023-02-03T05:47:40;6.50;;;5.73;;
16731;SDS011;8484;50.904;9.192;2023-02-03T05:50:07;6.30;;;5.60;;
16731;SDS011;8484;50.904;9.192;2023-02-03T05:52:34;6.87;;;5.70;;
16731;SDS011;8484;50.904;9.192;2023-02-03T05:55:01;6.00;;;5.50;;
16731;SDS011;8484;50.904;9.192;2023-02-03T05:57:28;6.57;;;5.50;;
16731;SDS011;8484;50.904;9.192;2023-02-03T05:59:56;8.50;;;5.33;;
16731;SDS011;8484;50.904;9.192;2023-02-03T06:02:23;7.17;;;5.90;;
16731;SDS011;8484;50.904;9.192;2023-02-03T06:04:50;7.53;;;5.27;;
16731;SDS011;8484;50.904;9.192;2023-02-03T06:07:17;6.27;;;5.67;;
16731;SDS011;8484;50.904;9.192;2023-02-03T06:09:44;6.67;;;6.13;;
16731;SDS011;8484;50.904;9.192;2023-02-03T06:12:10;6.43;;;5.83;;
16731;SDS011;8484;50.904;9.192;2023-02-03T06:14:37;6.03;;;5.43;;
16731;SDS011;8484;50.904;9.192;2023-02-03T06:17:05;6.17;;;5.37;;
16731;SDS011;8484;50.904;9.192;2023-02-03T06:19:32;6.00;;;5.40;;
16731;SDS011;8484;50.904;9.192;2023-02-03T06:21:59;7.17;;;5.73;;
16731;SDS011;8484;50.904;9.192;2023-02-03T06:24:26;6.40;;;5.60;;
16731;SDS011;8484;50.904;9.192;2023-02-03T06:26:54;7.40;;;5.40;;
16731;SDS011;8484;50.904;9.192;2023-02-03T06:29:21;6.13;;;5.53;;
16731;SDS011;8484;50.904;9.192;2023-02-03T06:31:48;5.63;;;5.23;;
16731;SDS011;8484;50.904;9.192;2023-02-03T06:34:16;6.73;;;5.10;;
16731;SDS011;8484;50.904;9.192;2023-02-03T06:36:43;6.90;;;5.20;;
16731;SDS011;8484;50.904;9.192;2023-02-03T06:39:09;5.90;;;5.30;;
16731;SDS011;8484;50.904;9.192;2023-02-03T06:41:36;6.93;;;5.63;;
16731;SDS011;8484;50.904;9.192;2023-02-03T06:44:03;6.07;;;5.57;;
16731;SDS011;8484;50.904;9.192;2023-02-03T06:46:30;6.03;;;5.53;;
16731;SDS011;8484;50.904;9.192;2023-02-03T06:48:57;5.90;;;5.43;;
16731;SDS011;8484;50.904;9.192;2023-02-03T06:51:26;6.93;;;5.57;;
16731;SDS011;8484;50.904;9.192;2023-02-03T06:53:53;6.30;;;5.70;;
16731;SDS011;8484;50.904;9.192;2023-02-03T06:56:19;6.33;;;5.77;;
16731;SDS011;8484;50.904;9.192;2023-02-03T06:58:46;6.20;;;5.70;;
16731;SDS011;8484;50.904;9.192;2023-02-03T07:01:13;6.43;;;5.83;;
16731;SDS011;8484;50.904;9.192;2023-02-03T07:03:40;6.50;;;6.00;;
16731;SDS011;8484;50.904;9.192;2023-02-03T07:06:07;6.23;;;5.73;;
16731;SDS011;8484;50.904;9.192;2023-02-03T07:08:35;7.37;;;6.77;;
16731;SDS011;8484;50.904;9.192;2023-02-03T07:11:03;7.20;;;6.57;;
16731;SDS011;8484;50.904;9.192;2023-02-03T07:13:30;7.03;;;6.50;;
16731;SDS011;8484;50.904;9.192;2023-02-03T07:15:57;7.57;;;6.77;;
16731;SDS011;8484;50.904;9.192;2023-02-03T07:18:24;7.50;;;6.90;;
16731;SDS011;8484;50.904;9.192;2023-02-03T07:20:51;6.97;;;6.47;;
16731;SDS011;8484;50.904;9.192;2023-02-03T07:23:18;7.20;;;6.60;;
16731;SDS011;8484;50.904;9.192;2023-02-03T07:25:46;7.00;;;6.43;;
16731;SDS011;8484;50.904;9.192;2023-02-03T07:28:13;7.07;;;6.57;;
16731;SDS011;8484;50.904;9.192;2023-02-03T07:30:40;7.63;;;6.93;;
16731;SDS011;8484;50.904;9.192;2023-02-03T07:33:06;8.37;;;6.90;;
16731;SDS011;8484;50.904;9.192;2023-02-03T07:35:33;7.33;;;6.67;;
16731;SDS011;8484;50.904;9.192;2023-02-03T07:38:00;7.07;;;6.53;;
16731;SDS011;8484;50.904;9.192;2023-02-03T07:40:27;7.10;;;6.40;;
16731;SDS011;8484;50.904;9.192;2023-02-03T07:42:55;7.13;;;6.43;;
16731;SDS011;8484;50.904;9.192;2023-02-03T07:45:24;6.67;;;6.07;;
16731;SDS011;8484;50.904;9.192;2023-02-03T07:47:51;9.80;;;6.00;;
16731;SDS011;8484;50.904;9.192;2023-02-03T07:50:18;6.03;;;5.53;;
16731;SDS011;8484;50.904;9.192;2023-02-03T07:52:45;8.87;;;6.03;;
16731;SDS011;8484;50.904;9.192;2023-02-03T07:55:11;6.20;;;5.70;;
16731;SDS011;8484;50.904;9.192;2023-02-03T07:57:38;6.90;;;6.27;;
16731;SDS011;8484;50.904;9.192;2023-02-03T08:00:09;6.17;;;5.73;;
16731;SDS011;8484;50.904;9.192;2023-02-03T08:02:38;6.53;;;6.00;;
16731;SDS011;8484;50.904;9.192;2023-02-03T08:05:05;6.83;;;5.90;;
16731;SDS011;8484;50.904;9.192;2023-02-03T08:07:32;6.40;;;5.90;;
16731;SDS011;8484;50.904;9.192;2023-02-03T08:09:59;6.40;;;5.90;;
16731;SDS011;8484;50.904;9.192;2023-02-03T08:12:26;7.03;;;6.37;;
16731;SDS011;8484;50.904;9.192;2023-02-03T08:14:53;7.17;;;6.47;;
16731;SDS011;8484;50.904;9.192;2023-02-03T08:17:21;6.57;;;5.97;;
16731;SDS011;8484;50.904;9.192;2023-02-03T08:19:47;6.67;;;6.07;;
16731;SDS011;8484;50.904;9.192;2023-02-03T08:22:14;7.10;;;6.50;;
16731;SDS011;8484;50.904;9.192;2023-02-03T08:24:41;6.40;;;5.90;;
16731;SDS011;8484;50.904;9.192;2023-02-03T08:27:10;7.20;;;6.50;;
16731;SDS011;8484;50.904;9.192;2023-02-03T08:29:37;7.23;;;6.50;;
16731;SDS011;8484;50.904;9.192;2023-02-03T08:32:04;6.53;;;6.00;;
16731;SDS011;8484;50.904;9.192;2023-02-03T08:34:35;6.90;;;6.37;;
16731;SDS011;8484;50.904;9.192;2023-02-03T08:37:02;7.00;;;6.40;;
16731;SDS011;8484;50.904;9.192;2023-02-03T08:39:29;6.60;;;6.10;;
16731;SDS011;8484;50.904;9.192;2023-02-03T08:41:56;7.10;;;6.27;;
16731;SDS011;8484;50.904;9.192;2023-02-03T08:44:23;6.80;;;6.30;;
16731;SDS011;8484;50.904;9.192;2023-02-03T08:46:50;7.00;;;6.30;;
16731;SDS011;8484;50.904;9.192;2023-02-03T08:49:18;6.97;;;6.47;;
16731;SDS011;8484;50.904;9.192;2023-02-03T08:51:47;7.27;;;6.57;;
16731;SDS011;8484;50.904;9.192;2023-02-03T08:54:15;6.80;;;6.30;;
16731;SDS011;8484;50.904;9.192;2023-02-03T08:56:41;6.97;;;6.43;;
16731;SDS011;8484;50.904;9.192;2023-02-03T08:59:09;7.87;;;7.17;;
16731;SDS011;8484;50.904;9.192;2023-02-03T09:01:36;8.27;;;6.97;;
16731;SDS011;8484;50.904;9.192;2023-02-03T09:04:04;7.90;;;6.70;;
16731;SDS011;8484;50.904;9.192;2023-02-03T09:06:32;6.77;;;6.27;;
16731;SDS011;8484;50.904;9.192;2023-02-03T09:09:00;7.10;;;6.40;;
16731;SDS011;8484;50.904;9.192;2023-02-03T09:11:28;6.90;;;6.27;;
16731;SDS011;8484;50.904;9.192;2023-02-03T09:13:56;7.07;;;6.53;;
16731;SDS011;8484;50.904;9.192;2023-02-03T09:16:23;6.90;;;6.30;;
16731;SDS011;8484;50.904;9.192;2023-02-03T09:18:51;6.70;;;6.20;;
16731;SDS011;8484;50.904;9.192;2023-02-03T09:21:18;6.73;;;6.23;;
16731;SDS011;8484;50.904;9.192;2023-02-03T09:23:44;7.10;;;6.37;;
16731;SDS011;8484;50.904;9.192;2023-02-03T09:26:13;6.20;;;5.70;;
16731;SDS011;8484;50.904;9.192;2023-02-03T09:28:40;6.77;;;6.03;;
16731;SDS011;8484;50.904;9.192;2023-02-03T09:31:08;6.37;;;5.90;;
16731;SDS011;8484;50.904;9.192;2023-02-03T09:33:37;7.07;;;6.47;;
16731;SDS011;8484;50.904;9.192;2023-02-03T09:36:04;7.40;;;6.00;;
16731;SDS011;8484;50.904;9.192;2023-02-03T09:38:32;6.10;;;5.53;;
16731;SDS011;8484;50.904;9.192;2023-02-03T09:41:00;6.20;;;5.70;;
16731;SDS011;8484;50.904;9.192;2023-02-03T09:43:38;6.10;;;5.60;;
16731;SDS011;8484;50.904;9.192;2023-02-03T09:46:10;5.93;;;5.53;;
16731;SDS011;8484;50.904;9.192;2023-02-03T09:48:42;6.17;;;5.67;;
16731;SDS011;8484;50.904;9.192;2023-02-03T09:51:16;6.47;;;5.80;;
16731;SDS011;8484;50.904;9.192;2023-02-03T09:53:47;5.93;;;5.53;;
16731;SDS011;8484;50.904;9.192;2023-02-03T09:56:22;6.77;;;5.87;;
16731;SDS011;8484;50.904;9.192;2023-02-03T09:58:55;6.13;;;5.60;;
16731;SDS011;8484;50.904;9.192;2023-02-03T10:01:23;6.27;;;5.77;;
16731;SDS011;8484;50.904;9.192;2023-02-03T10:03:56;6.17;;;5.73;;
16731;SDS011;8484;50.904;9.192;2023-02-03T10:06:30;7.30;;;6.03;;
16731;SDS011;8484;50.904;9.192;2023-02-03T10:09:04;6.37;;;5.87;;
16731;SDS011;8484;50.904;9.192;2023-02-03T10:11:55;6.27;;;5.80;;
16731;SDS011;8484;50.904;9.192;2023-02-03T10:14:41;6.60;;;6.20;;
16731;SDS011;8484;50.904;9.192;2023-02-03T10:17:26;6.37;;;5.87;;
16731;SDS011;8484;50.904;9.192;2023-02-03T10:20:00;6.10;;;5.73;;
16731;SDS011;8484;50.904;9.192;2023-02-03T10:22:30;6.23;;;5.77;;
16731;SDS011;8484;50.904;9.192;2023-02-03T10:25:03;6.20;;;5.80;;
16731;SDS011;8484;50.904;9.192;2023-02-03T10:27:33;6.13;;;5.37;;
16731;SDS011;8484;50.904;9.192;2023-02-03T10:30:05;5.83;;;5.47;;
16731;SDS011;8484;50.904;9.192;2023-02-03T10:32:46;5.47;;;5.17;;
16731;SDS011;8484;50.904;9.192;2023-02-03T10:35:17;5.30;;;5.00;;
16731;SDS011;8484;50.904;9.192;2023-02-03T10:37:46;5.50;;;5.10;;
16731;SDS011;8484;50.904;9.192;2023-02-03T10:40:16;5.37;;;4.97;;
16731;SDS011;8484;50.904;9.192;2023-02-03T10:42:44;4.97;;;4.63;;
16731;SDS011;8484;50.904;9.192;2023-02-03T10:45:32;4.50;;;4.30;;
16731;SDS011;8484;50.904;9.192;2023-02-03T10:48:03;4.63;;;4.30;;
16731;SDS011;8484;50.904;9.192;2023-02-03T10:50:34;4.47;;;4.13;;
16731;SDS011;8484;50.904;9.192;2023-02-03T10:53:23;3.97;;;3.77;;
16731;SDS011;8484;50.904;9.192;2023-02-03T10:55:58;4.17;;;3.93;;
16731;SDS011;8484;50.904;9.192;2023-02-03T10:58:28;4.20;;;4.00;;
16731;SDS011;8484;50.904;9.192;2023-02-03T11:01:03;4.37;;;4.10;;
16731;SDS011;8484;50.904;9.192;2023-02-03T11:03:33;4.07;;;3.87;;
16731;SDS011;8484;50.904;9.192;2023-02-03T11:06:02;3.77;;;3.57;;
16731;SDS011;8484;50.904;9.192;2023-02-03T11:08:31;4.23;;;4.03;;
16731;SDS011;8484;50.904;9.192;2023-02-03T11:11:02;3.70;;;3.50;;
16731;SDS011;8484;50.904;9.192;2023-02-03T11:13:30;3.63;;;3.43;;
16731;SDS011;8484;50.904;9.192;2023-02-03T11:15:59;3.77;;;3.47;;
16731;SDS011;8484;50.904;9.192;2023-02-03T11:21:17;3.63;;;3.43;;
16731;SDS011;8484;50.904;9.192;2023-02-03T11:23:48;3.60;;;3.40;;
16731;SDS011;8484;50.904;9.192;2023-02-03T11:26:28;3.47;;;3.27;;
16731;SDS011;8484;50.904;9.192;2023-02-03T11:28:58;3.37;;;3.17;;
16731;SDS011;8484;50.904;9.192;2023-02-03T11:31:28;3.00;;;2.90;;
16731;SDS011;8484;50.904;9.192;2023-02-03T11:33:57;3.00;;;2.90;;
16731;SDS011;8484;50.904;9.192;2023-02-03T11:36:27;3.23;;;3.03;;
16731;SDS011;8484;50.904;9.192;2023-02-03T11:41:49;3.10;;;3.00;;
16731;SDS011;8484;50.904;9.192;2023-02-03T11:44:16;3.00;;;2.80;;
16731;SDS011;8484;50.904;9.192;2023-02-03T11:46:47;3.13;;;2.93;;
16731;SDS011;8484;50.904;9.192;2023-02-03T11:49:27;3.37;;;3.17;;
16731;SDS011;8484;50.904;9.192;2023-02-03T11:52:15;3.03;;;2.93;;
16731;SDS011;8484;50.904;9.192;2023-02-03T11:54:58;3.17;;;3.00;;
16731;SDS011;8484;50.904;9.192;2023-02-03T11:57:35;3.00;;;2.90;;
16731;SDS011;8484;50.904;9.192;2023-02-03T12:00:12;2.97;;;2.80;;
16731;SDS011;8484;50.904;9.192;2023-02-03T12:05:47;2.93;;;2.80;;
16731;SDS011;8484;50.904;9.192;2023-02-03T12:08:59;3.27;;;3.07;;
16731;SDS011;8484;50.904;9.192;2023-02-03T12:11:37;3.00;;;2.90;;
16731;SDS011;8484;50.904;9.192;2023-02-03T12:14:16;3.07;;;2.87;;
16731;SDS011;8484;50.904;9.192;2023-02-03T12:16:58;3.10;;;3.00;;
16731;SDS011;8484;50.904;9.192;2023-02-03T12:19:37;3.20;;;3.00;;
16731;SDS011;8484;50.904;9.192;2023-02-03T12:22:14;3.60;;;3.03;;
16731;SDS011;8484;50.904;9.192;2023-02-03T12:24:47;3.20;;;3.00;;
16731;SDS011;8484;50.904;9.192;2023-02-03T12:27:23;3.07;;;2.87;;
16731;SDS011;8484;50.904;9.192;2023-02-03T12:30:00;3.10;;;2.90;;
16731;SDS011;8484;50.904;9.192;2023-02-03T12:32:33;3.00;;;2.80;;
16731;SDS011;8484;50.904;9.192;2023-02-03T12:35:10;2.70;;;2.60;;
16731;SDS011;8484;50.904;9.192;2023-02-03T12:37:42;2.90;;;2.70;;
16731;SDS011;8484;50.904;9.192;2023-02-03T12:40:14;2.80;;;2.60;;
16731;SDS011;8484;50.904;9.192;2023-02-03T12:42:46;2.90;;;2.70;;
16731;SDS011;8484;50.904;9.192;2023-02-03T12:45:19;2.70;;;2.60;;
16731;SDS011;8484;50.904;9.192;2023-02-03T12:47:50;2.70;;;2.60;;
16731;SDS011;8484;50.904;9.192;2023-02-03T12:50:25;3.03;;;2.83;;
16731;SDS011;8484;50.904;9.192;2023-02-03T12:52:56;2.70;;;2.60;;
16731;SDS011;8484;50.904;9.192;2023-02-03T12:55:31;2.80;;;2.70;;
16731;SDS011;8484;50.904;9.192;2023-02-03T12:58:02;2.70;;;2.60;;
16731;SDS011;8484;50.904;9.192;2023-02-03T13:00:37;2.90;;;2.70;;
16731;SDS011;8484;50.904;9.192;2023-02-03T13:03:12;3.37;;;2.53;;
16731;SDS011;8484;50.904;9.192;2023-02-03T13:05:46;3.00;;;2.80;;
16731;SDS011;8484;50.904;9.192;2023-02-03T13:08:27;3.00;;;2.80;;
16731;SDS011;8484;50.904;9.192;2023-02-03T13:11:01;2.90;;;2.80;;
16731;SDS011;8484;50.904;9.192;2023-02-03T13:13:38;2.90;;;2.70;;
16731;SDS011;8484;50.904;9.192;2023-02-03T13:16:09;3.00;;;2.90;;
16731;SDS011;8484;50.904;9.192;2023-02-03T13:18:40;3.77;;;3.50;;
16731;SDS011;8484;50.904;9.192;2023-02-03T13:21:12;2.90;;;2.70;;
16731;SDS011;8484;50.904;9.192;2023-02-03T13:23:41;3.20;;;3.00;;
16731;SDS011;8484;50.904;9.192;2023-02-03T13:26:15;3.67;;;3.00;;
16731;SDS011;8484;50.904;9.192;2023-02-03T13:29:17;3.60;;;3.40;;
16731;SDS011;8484;50.904;9.192;2023-02-03T13:32:00;3.20;;;3.00;;
16731;SDS011;8484;50.904;9.192;2023-02-03T13:34:44;3.10;;;2.90;;
16731;SDS011;8484;50.904;9.192;2023-02-03T13:37:30;3.00;;;2.90;;
16731;SDS011;8484;50.904;9.192;2023-02-03T13:40:09;2.80;;;2.70;;
16731;SDS011;8484;50.904;9.192;2023-02-03T13:42:46;3.10;;;2.90;;
16731;SDS011;8484;50.904;9.192;2023-02-03T13:45:20;3.33;;;3.13;;
16731;SDS011;8484;50.904;9.192;2023-02-03T13:47:53;3.17;;;2.97;;
16731;SDS011;8484;50.904;9.192;2023-02-03T13:50:22;3.13;;;2.93;;
16731;SDS011;8484;50.904;9.192;2023-02-03T13:52:53;3.57;;;3.37;;
16731;SDS011;8484;50.904;9.192;2023-02-03T13:55:28;3.60;;;3.40;;
16731;SDS011;8484;50.904;9.192;2023-02-03T13:57:58;3.33;;;3.13;;
16731;SDS011;8484;50.904;9.192;2023-02-03T14:03:42;3.57;;;3.37;;
16731;SDS011;8484;50.904;9.192;2023-02-03T14:09:32;3.50;;;3.30;;
16731;SDS011;8484;50.904;9.192;2023-02-03T14:12:17;3.70;;;3.50;;
16731;SDS011;8484;50.904;9.192;2023-02-03T14:14:58;4.17;;;3.87;;
16731;SDS011;8484;50.904;9.192;2023-02-03T14:23:24;4.63;;;4.23;;
16731;SDS011;8484;50.904;9.192;2023-02-03T14:25:56;5.30;;;4.90;;
16731;SDS011;8484;50.904;9.192;2023-02-03T14:28:28;5.67;;;4.50;;
16731;SDS011;8484;50.904;9.192;2023-02-03T14:31:06;4.70;;;4.27;;
16731;SDS011;8484;50.904;9.192;2023-02-03T14:34:01;4.27;;;4.00;;
16731;SDS011;8484;50.904;9.192;2023-02-03T14:36:51;4.43;;;4.00;;
16731;SDS011;8484;50.904;9.192;2023-02-03T14:39:25;4.73;;;3.70;;
16731;SDS011;8484;50.904;9.192;2023-02-03T14:42:28;4.77;;;4.37;;
16731;SDS011;8484;50.904;9.192;2023-02-03T14:45:24;3.87;;;3.57;;
16731;SDS011;8484;50.904;9.192;2023-02-03T14:48:04;4.67;;;3.40;;
16731;SDS011;8484;50.904;9.192;2023-02-03T14:50:45;3.40;;;3.20;;
16731;SDS011;8484;50.904;9.192;2023-02-03T14:53:38;3.53;;;3.20;;
16731;SDS011;8484;50.904;9.192;2023-02-03T14:56:16;3.60;;;3.30;;
16731;SDS011;8484;50.904;9.192;2023-02-03T14:58:52;3.93;;;2.93;;
16731;SDS011;8484;50.904;9.192;2023-02-03T15:01:24;3.40;;;3.10;;
16731;SDS011;8484;50.904;9.192;2023-02-03T15:06:46;3.87;;;3.10;;
16731;SDS011;8484;50.904;9.192;2023-02-03T15:09:15;3.57;;;3.27;;
16731;SDS011;8484;50.904;9.192;2023-02-03T15:11:51;3.40;;;3.10;;
16731;SDS011;8484;50.904;9.192;2023-02-03T15:14:21;3.93;;;3.30;;
16731;SDS011;8484;50.904;9.192;2023-02-03T15:16:52;6.27;;;3.63;;
16731;SDS011;8484;50.904;9.192;2023-02-03T15:19:22;3.77;;;3.40;;
16731;SDS011;8484;50.904;9.192;2023-02-03T15:21:50;4.70;;;4.20;;
16731;SDS011;8484;50.904;9.192;2023-02-03T15:24:18;5.27;;;4.50;;
16731;SDS011;8484;50.904;9.192;2023-02-03T15:26:48;5.40;;;4.17;;
16731;SDS011;8484;50.904;9.192;2023-02-03T15:29:26;6.20;;;4.10;;
16731;SDS011;8484;50.904;9.192;2023-02-03T15:31:56;7.47;;;4.00;;
16731;SDS011;8484;50.904;9.192;2023-02-03T15:34:29;7.37;;;4.50;;
16731;SDS011;8484;50.904;9.192;2023-02-03T15:37:00;6.97;;;4.30;;
16731;SDS011;8484;50.904;9.192;2023-02-03T15:39:51;5.73;;;4.33;;
16731;SDS011;8484;50.904;9.192;2023-02-03T15:42:25;5.47;;;4.40;;
16731;SDS011;8484;50.904;9.192;2023-02-03T15:44:57;4.77;;;4.20;;
16731;SDS011;8484;50.904;9.192;2023-02-03T15:47:30;5.17;;;4.17;;
16731;SDS011;8484;50.904;9.192;2023-02-03T15:50:01;5.00;;;3.80;;